Thunder radar more information blitzortung!


Radar de pluja more information rain snow radar


Visita la nostra xarxa de llocs de meteo:

Template documentation
and downloads

And another site



No particular awareness of the weather is required.    There are no Weather-warnings

Pagina Historial Weather Underground text

Diari Resum Octubre 29, 2017 Unitats:  Mètric    Imperial   Tant
« Previous Dia
SegĂźent Dia »
Diari Setmana Mensual Anual Personalitzada
  Maxima: Minima: Media:
Temperatura: -17.8 °C -12.4 °C -8.8 °C
Punt de rosada: -17.8 °C -15.4 °C -13.9 °C
Humitat: Humidity % 42 % 55 %
Wind Speed: 0 km/h 0 km/h 7.9 km/h
RĂ fegues de vent: 0 km/h - -
Vent:- - SSE
Pression baro: 0 hPa 34428.8 hPa -
Precipitacions: 0 mm    
Historical Graphs
 
 
Dades de taula per Octubre 29, 2017
Temps Temperatura Punt de rosada Pression baro Vent Wind Speed RĂ fegues de vent Humitat Rainfall Rate (Hourly)
-17.8 °C -17.8 °C 0 hPa Calm     Humidity % 0 mm
00:00 -10.2 °C -13.1 °C 34601.5 hPa ENE 6 km/h 6 km/h 71 % 0 mm
00:05 -10.2 °C -12.9 °C 34601.5 hPa East 3.7 km/h 3.7 km/h 72 % 0 mm
00:10 -10.3 °C -13 °C 34601.5 hPa East 6 km/h   72 % 0 mm
00:15 -10.2 °C -12.9 °C 34601.5 hPa West 3.1 km/h 3.1 km/h 72 % 0 mm
00:20 -10.3 °C -13 °C 34601.5 hPa WNW 3.1 km/h   72 % 0 mm
00:25 -10.3 °C -12.9 °C 34567.7 hPa Calm     73 % 0 mm
00:30 -10.4 °C -13.2 °C 34567.7 hPa SSE 6 km/h 6 km/h 72 % 0 mm
00:36 -10.5 °C -13.1 °C 34567.7 hPa NNE 6 km/h 6 km/h 73 % 0 mm
00:40 -12 °C -14.5 °C 34601.5 hPa Calm   5.1 km/h 74 % 0 mm
00:41 -10.6 °C -13.2 °C 34567.7 hPa Calm     73 % 0 mm
00:46 -10.6 °C -13.1 °C 34567.7 hPa Calm     74 % 0 mm
00:50 -12 °C -14.5 °C 34601.5 hPa WSW 2.6 km/h 5.1 km/h 74 % 0 mm
00:51 -10.7 °C -13.2 °C 34567.7 hPa NE 3.1 km/h   74 % 0 mm
00:56 -10.8 °C -13.2 °C 34601.5 hPa Calm     75 % 0 mm
01:00 -11.8 °C -14.3 °C 34601.5 hPa NNE 5.1 km/h 7.7 km/h 74 % 0 mm
01:10 -11.9 °C -14.3 °C 34601.5 hPa Calm   5.1 km/h 74 % 0 mm
01:20 -11.9 °C -14.4 °C 34635.4 hPa West 2.6 km/h 5.1 km/h 74 % 0 mm
01:30 -12 °C -14.5 °C 34601.5 hPa WNW 2.6 km/h 5.1 km/h 74 % 0 mm
01:40 -12 °C -14.5 °C 34601.5 hPa NNW 2.6 km/h 5.1 km/h 74 % 0 mm
01:50 -12.1 °C -14.5 °C 34601.5 hPa North 2.6 km/h 5.1 km/h 74 % 0 mm
02:00 -12.2 °C -14.7 °C 34601.5 hPa NNW 2.6 km/h 2.6 km/h 74 % 0 mm
02:10 -12.3 °C -14.7 °C 34601.5 hPa West 2.6 km/h 5.1 km/h 74 % 0 mm
02:20 -12.4 °C -14.7 °C 34601.5 hPa West 2.6 km/h 5.1 km/h 75 % 0 mm
02:30 -12.4 °C -14.7 °C 34601.5 hPa Calm   5.1 km/h 75 % 0 mm
02:40 -12.4 °C -14.6 °C 34601.5 hPa Calm     76 % 0 mm
02:50 -12.2 °C -14.5 °C 34601.5 hPa Calm     76 % 0 mm
02:00 -12 °C -14.3 °C 34635.4 hPa Calm   2.6 km/h 76 % 0 mm
02:10 -11.8 °C -14.1 °C 34635.4 hPa Calm     76 % 0 mm
02:20 -11.8 °C -14.1 °C 34601.5 hPa Calm   5.1 km/h 75 % 0 mm
02:30 -11.4 °C -13.8 °C 34635.4 hPa Calm   2.6 km/h 75 % 0 mm
02:40 -11.6 °C -14.1 °C 34635.4 hPa SW 2.6 km/h 5.1 km/h 74 % 0 mm
02:50 -11.3 °C -13.8 °C 34635.4 hPa SW 5.1 km/h 5.1 km/h 74 % 0 mm
03:00 -10.9 °C -13.5 °C 34635.4 hPa SSW 2.6 km/h 5.1 km/h 73 % 0 mm
03:10 -10.9 °C -13.6 °C 34635.4 hPa SSW 2.6 km/h 5.1 km/h 72 % 0 mm
03:20 -10.7 °C -13.6 °C 34635.4 hPa SW 2.6 km/h 5.1 km/h 71 % 0 mm
03:30 -10.6 °C -13.6 °C 34635.4 hPa SSW 5.1 km/h 7.7 km/h 70 % 0 mm
03:40 -10.1 °C -13.2 °C 34635.4 hPa SSW 2.6 km/h 7.7 km/h 69 % 0 mm
03:50 -10 °C -13.4 °C 34635.4 hPa South 2.6 km/h 5.1 km/h 67 % 0 mm
04:00 -10.1 °C -13.4 °C 34601.5 hPa ESE 2.6 km/h 5.1 km/h 67 % 0 mm
10:04 -9.8 °C -13.3 °C 34601.5 hPa ENE 10.3 km/h 10.3 km/h 66 % 0 mm
10:05 -9.8 °C -13.3 °C 34601.5 hPa ENE 10.3 km/h 10.3 km/h 66 % 0 mm
10:10 -9.8 °C -13.3 °C 34601.5 hPa NE 17.9 km/h 17.9 km/h 66 % 0 mm
10:15 -9.9 °C -13.4 °C 34601.5 hPa NNE 15 km/h 15 km/h 66 % 0 mm
10:20 -9.8 °C -13.4 °C 34601.5 hPa ENE 9 km/h 9 km/h 65 % 0 mm
10:25 -9.7 °C -13.3 °C 34601.5 hPa NE 11.9 km/h 11.9 km/h 65 % 0 mm
10:30 -9.6 °C -13.2 °C 34601.5 hPa NE 4.2 km/h   65 % 0 mm
10:35 -9.4 °C -13.1 °C 34601.5 hPa NE 11.9 km/h 11.9 km/h 65 % 0 mm
10:40 -9.5 °C -13.2 °C 34601.5 hPa NNE 11.9 km/h 11.9 km/h 64 % 0 mm
10:45 -9.4 °C -13.2 °C 34601.5 hPa NNE 6 km/h 6 km/h 64 % 0 mm
10:50 -9.2 °C -12.9 °C 34601.5 hPa North 6 km/h 6 km/h 65 % 0 mm
10:55 -9.1 °C -12.9 °C 34567.7 hPa NNE 11.9 km/h 11.9 km/h 64 % 0 mm
11:00 -9 °C -12.8 °C 34567.7 hPa ENE 11.9 km/h 11.9 km/h 64 % 0 mm
11:05 -8.9 °C -12.7 °C 34567.7 hPa North 6.3 km/h 6.3 km/h 64 % 0 mm
11:10 -8.9 °C -12.9 °C 34601.5 hPa NE 15 km/h 15 km/h 63 % 0 mm
11:15 -8.9 °C -13 °C 34601.5 hPa NE 15 km/h 15 km/h 62 % 0 mm
11:20 -8.7 °C -12.7 °C 34601.5 hPa NE 11.9 km/h 11.9 km/h 63 % 0 mm
11:25 -8.7 °C -12.7 °C 34601.5 hPa NNE 11.9 km/h 11.9 km/h 62 % 0 mm
11:30 -8.5 °C -12.6 °C 34601.5 hPa NNE 9 km/h 9 km/h 62 % 0 mm
11:35 -8.4 °C -12.5 °C 34601.5 hPa NNE 17.9 km/h 17.9 km/h 62 % 0 mm
11:40 -8.6 °C -12.7 °C 34567.7 hPa NNE 11.9 km/h 11.9 km/h 61 % 0 mm
11:45 -8.4 °C -12.7 °C 34567.7 hPa NNE 11.9 km/h 11.9 km/h 61 % 0 mm
11:50 -8.3 °C -12.7 °C 34567.7 hPa ENE 9 km/h 9 km/h 60 % 0 mm
11:55 -8.3 °C -12.8 °C 34567.7 hPa NNE 11.9 km/h 11.9 km/h 59 % 0 mm
12:00 -8.3 °C -12.8 °C 34567.7 hPa ENE 15 km/h 15 km/h 59 % 0 mm
12:05 -8.2 °C -12.7 °C 34567.7 hPa NNW 11.9 km/h 11.9 km/h 59 % 0 mm
12:10 -8.2 °C -12.8 °C 34567.7 hPa NE 15 km/h 15 km/h 58 % 0 mm
12:15 -8.2 °C -12.8 °C 34567.7 hPa NNE 17.9 km/h 17.9 km/h 58 % 0 mm
12:20 -7.9 °C -12.6 °C 34567.7 hPa NNE 15 km/h 15 km/h 58 % 0 mm
12:25 -7.9 °C -12.7 °C 34533.8 hPa NNE 11.9 km/h 11.9 km/h 57 % 0 mm
12:30 -7.7 °C -12.3 °C 34533.8 hPa NNE 15.6 km/h 15.6 km/h 58 % 0 mm
12:35 -7.7 °C -12.4 °C 34533.8 hPa NNE 9 km/h 9 km/h 57 % 0 mm
12:40 -7.6 °C -12.4 °C 34533.8 hPa NNE 9 km/h 9 km/h 57 % 0 mm
12:45 -7.4 °C -12.2 °C 34533.8 hPa NE 9 km/h 9 km/h 57 % 0 mm
12:50 -7.3 °C -12.3 °C 34533.8 hPa NNE 9 km/h 9 km/h 56 % 0 mm
12:55 -7.2 °C -12.3 °C 34533.8 hPa ENE 11.9 km/h 11.9 km/h 55 % 0 mm
13:00 -7.2 °C -12.3 °C 34533.8 hPa NNE 9 km/h 9 km/h 55 % 0 mm
13:05 -7.1 °C -12.2 °C 34533.8 hPa ENE 9 km/h 9 km/h 55 % 0 mm
13:10 -6.9 °C -12.3 °C 34533.8 hPa NE 6 km/h 6.3 km/h 54 % 0 mm
13:15 -6.9 °C -12.1 °C 34533.8 hPa ENE 12.7 km/h 12.7 km/h 55 % 0 mm
13:20 -7 °C -12.3 °C 34533.8 hPa NNW 11.9 km/h 11.9 km/h 54 % 0 mm
13:25 -6.9 °C -12.3 °C 34533.8 hPa NNE 14 km/h 14 km/h 54 % 0 mm
13:30 -7.1 °C -12.5 °C 34533.8 hPa NNE 17.9 km/h 17.9 km/h 53 % 0 mm
13:35 -7 °C -12.4 °C 34533.8 hPa WNW 15 km/h 15 km/h 53 % 0 mm
13:40 -6.9 °C -12.3 °C 34533.8 hPa NNE 11.9 km/h 11.9 km/h 53 % 0 mm
13:45 -6.9 °C -12.3 °C 34533.8 hPa ENE 10.3 km/h 10.3 km/h 53 % 0 mm
13:50 -6.9 °C -12.3 °C 34533.8 hPa NW 11.9 km/h 11.9 km/h 53 % 0 mm
13:55 -6.8 °C -12.3 °C 34496.6 hPa NNE 6 km/h 6 km/h 53 % 0 mm
14:00 -6.7 °C -12.3 °C 34496.6 hPa SE 6 km/h 6 km/h 52 % 0 mm
14:05 -6.3 °C -11.9 °C 34496.6 hPa WSW 9.8 km/h 9.8 km/h 52 % 0 mm
14:10 -6.1 °C -12.1 °C 34496.6 hPa WSW 19.2 km/h 19.2 km/h 50 % 0 mm
14:15 -6 °C -12.2 °C 34496.6 hPa SW 17.9 km/h 17.9 km/h 49 % 0 mm
14:20 -5.8 °C -12.1 °C 34496.6 hPa SW 9 km/h 9 km/h 49 % 0 mm
14:25 -5.8 °C -12.2 °C 34496.6 hPa West 17.9 km/h 17.9 km/h 48 % 0 mm
14:30 -5.8 °C -12.2 °C 34496.6 hPa WSW 17.9 km/h 17.9 km/h 48 % 0 mm
14:35 -5.7 °C -12.3 °C 34496.6 hPa West 12.7 km/h 12.7 km/h 47 % 0 mm
14:40 -5.7 °C -12.2 °C 34462.7 hPa WSW 12.7 km/h 12.7 km/h 47 % 0 mm
14:45 -5.7 °C -12.7 °C 34462.7 hPa WSW 20.9 km/h 20.9 km/h 45 % 0 mm
14:50 -5.7 °C -12.7 °C 34462.7 hPa WSW 17.9 km/h 17.9 km/h 45 % 0 mm
14:55 -5.8 °C -12.7 °C 34462.7 hPa NW 17.9 km/h 17.9 km/h 45 % 0 mm
15:00 -5.7 °C -12.6 °C 34462.7 hPa WNW 11.9 km/h 11.9 km/h 45 % 0 mm
15:05 -5.7 °C -12.6 °C 34462.7 hPa SW 11.1 km/h 11.1 km/h 45 % 0 mm
15:15 -5.7 °C -12.8 °C 34462.7 hPa West 9 km/h 9 km/h 44 % 0 mm
15:20 -5.8 °C -12.9 °C 34462.7 hPa West 11.9 km/h 11.9 km/h 44 % 0 mm
15:25 -5.6 °C -12.7 °C 34462.7 hPa West 6 km/h 6 km/h 44 % 0 mm
15:30 -5.6 °C -12.6 °C 34462.7 hPa WSW 14 km/h 14 km/h 45 % 0 mm
15:35 -5.6 °C -12.7 °C 34462.7 hPa WSW 15 km/h 15 km/h 44 % 0 mm
15:40 -5.5 °C -12.6 °C 34428.8 hPa SW 11.9 km/h 11.9 km/h 44 % 0 mm
15:45 -5.5 °C -12.6 °C 34428.8 hPa West 11.9 km/h 11.9 km/h 44 % 0 mm
15:50 -5.6 °C -12.7 °C 34428.8 hPa West 9.3 km/h 9.3 km/h 44 % 0 mm
15:55 -5.6 °C -12.7 °C 34462.7 hPa West 11.9 km/h 11.9 km/h 44 % 0 mm
16:00 -5.6 °C -12.7 °C 34462.7 hPa West 11.9 km/h 11.9 km/h 44 % 0 mm
16:05 -5.7 °C -13 °C 34462.7 hPa WNW 11.9 km/h 11.9 km/h 43 % 0 mm
16:10 -5.7 °C -12.9 °C 34462.7 hPa West 9 km/h 9 km/h 43 % 0 mm
16:15 -5.8 °C -13.1 °C 34462.7 hPa West 11.1 km/h 11.1 km/h 43 % 0 mm
16:20 -5.9 °C -13.4 °C 34462.7 hPa West 9 km/h 9 km/h 42 % 0 mm
16:25 -5.9 °C -13.4 °C 34462.7 hPa West 23.8 km/h 23.8 km/h 42 % 0 mm
16:30 -6 °C -13.4 °C 34462.7 hPa West 15 km/h 15 km/h 42 % 0 mm
16:35 -6.1 °C -13.5 °C 34462.7 hPa NNW 15 km/h 15 km/h 42 % 0 mm
16:40 -6.1 °C -13.6 °C 34496.6 hPa NW 9 km/h 9 km/h 42 % 0 mm
16:45 -6.3 °C -13.7 °C 34496.6 hPa WNW 6 km/h 6 km/h 42 % 0 mm
16:50 -6.3 °C -13.7 °C 34496.6 hPa WNW 11.9 km/h 11.9 km/h 42 % 0 mm
16:55 -6.3 °C -13.6 °C 34462.7 hPa WNW 6 km/h 6 km/h 43 % 0 mm
17:00 -6.4 °C -13.6 °C 34462.7 hPa SSW 11.1 km/h 11.1 km/h 43 % 0 mm
17:05 -6.4 °C -13.8 °C 34462.7 hPa SW 6 km/h 6 km/h 42 % 0 mm
17:10 -6.5 °C -13.7 °C 34428.8 hPa SW 6 km/h 6 km/h 43 % 0 mm
17:15 -6.6 °C -14 °C 34428.8 hPa WSW 11.9 km/h 11.9 km/h 42 % 0 mm
17:20 -6.8 °C -14.2 °C 34428.8 hPa West 9.3 km/h 9.3 km/h 42 % 0 mm
17:21 -6.8 °C -14.2 °C 34428.8 hPa West 9.3 km/h 9.3 km/h 42 % 0 mm
17:26 -6.8 °C -14.2 °C 34462.7 hPa WSW 6.3 km/h 6.3 km/h 42 % 0 mm
17:31 -6.9 °C -14.3 °C 34462.7 hPa West 9.3 km/h 9.3 km/h 42 % 0 mm
17:36 -7.2 °C -14.5 °C 34462.7 hPa West 11.9 km/h 11.9 km/h 42 % 0 mm
17:41 -7.3 °C -14.6 °C 34462.7 hPa WNW 15 km/h 15 km/h 42 % 0 mm
17:46 -7.4 °C -14.7 °C 34462.7 hPa SW 15 km/h 15 km/h 42 % 0 mm
17:51 -7.6 °C -14.9 °C 34462.7 hPa West 9 km/h 9 km/h 42 % 0 mm
17:56 -7.7 °C -14.9 °C 34462.7 hPa West 11.9 km/h 11.9 km/h 42 % 0 mm
18:01 -7.7 °C -15 °C 34462.7 hPa WNW 9.3 km/h 9.3 km/h 42 % 0 mm
18:06 -7.8 °C -14.9 °C 34462.7 hPa WSW 15 km/h 15 km/h 43 % 0 mm
18:11 -7.9 °C -15.1 °C 34462.7 hPa SSE 9 km/h 9 km/h 43 % 0 mm
18:16 -8.1 °C -15.1 °C 34462.7 hPa NW 11.9 km/h 11.9 km/h 43 % 0 mm
18:21 -8.1 °C -15 °C 34462.7 hPa WSW 15 km/h 15 km/h 44 % 0 mm
18:26 -8.2 °C -15.2 °C 34462.7 hPa West 15 km/h 15 km/h 43 % 0 mm
18:31 -8.2 °C -15.3 °C 34462.7 hPa ENE 6.8 km/h   43 % 0 mm
18:36 -8.3 °C -15.2 °C 34462.7 hPa NW 6 km/h 6 km/h 44 % 0 mm
18:41 -8.3 °C -15.2 °C 34428.8 hPa WNW 11.9 km/h 11.9 km/h 44 % 0 mm
18:46 -8.4 °C -15.1 °C 34428.8 hPa West 6 km/h 6 km/h 45 % 0 mm
18:51 -8.5 °C -15.2 °C 34428.8 hPa West 6 km/h 6 km/h 45 % 0 mm
18:56 -8.6 °C -15.2 °C 34428.8 hPa West 4.2 km/h 4.2 km/h 45 % 0 mm
19:01 -8.6 °C -15.3 °C 34428.8 hPa Calm     45 % 0 mm
19:06 -8.7 °C -15.2 °C 34428.8 hPa SW 6 km/h 6 km/h 46 % 0 mm
19:11 -8.7 °C -15.2 °C 34428.8 hPa WNW 3.1 km/h 3.1 km/h 46 % 0 mm
19:16 -8.8 °C -15.2 °C 34428.8 hPa NW 3.7 km/h 3.7 km/h 46 % 0 mm
19:21 -8.8 °C -15.2 °C 34428.8 hPa West 6 km/h 6 km/h 46 % 0 mm
19:26 -8.8 °C -15.3 °C 34428.8 hPa WSW 9 km/h 9 km/h 46 % 0 mm
19:31 -8.8 °C -15.1 °C 34428.8 hPa NNW 6 km/h 6 km/h 47 % 0 mm
19:36 -8.9 °C -15.2 °C 34428.8 hPa NW 11.9 km/h 11.9 km/h 47 % 0 mm
19:41 -8.9 °C -15.2 °C 34462.7 hPa North 4.2 km/h 4.2 km/h 47 % 0 mm
19:46 -8.9 °C -15.2 °C 34462.7 hPa North 6 km/h 6 km/h 47 % 0 mm
19:51 -8.9 °C -15.2 °C 34462.7 hPa NE 9.3 km/h 9.3 km/h 47 % 0 mm
19:56 -8.8 °C -15.1 °C 34462.7 hPa ENE 9 km/h 9 km/h 47 % 0 mm
20:01 -8.9 °C -15 °C 34462.7 hPa NNE 11.9 km/h 11.9 km/h 48 % 0 mm
20:06 -8.9 °C -15.1 °C 34462.7 hPa NE 15 km/h 15 km/h 48 % 0 mm
20:11 -9.1 °C -15.2 °C 34462.7 hPa ENE 6 km/h 6 km/h 48 % 0 mm
20:16 -9.2 °C -15.2 °C 34462.7 hPa NNE 6.8 km/h 6.8 km/h 49 % 0 mm
20:21 -9.2 °C -15.2 °C 34462.7 hPa NNE 9 km/h 9 km/h 49 % 0 mm
20:26 -9.3 °C -15.2 °C 34462.7 hPa NE 6.8 km/h 6.8 km/h 49 % 0 mm
20:31 -9.4 °C -15.2 °C 34462.7 hPa WNW 3.7 km/h 3.7 km/h 50 % 0 mm
20:36 -9.4 °C -15.2 °C 34462.7 hPa NNE 6 km/h 6 km/h 50 % 0 mm
20:41 -9.5 °C -15.2 °C 34462.7 hPa Calm     50 % 0 mm
20:46 -9.6 °C -15.3 °C 34462.7 hPa NNE 9 km/h 9 km/h 50 % 0 mm
20:51 -9.7 °C -15.2 °C 34462.7 hPa Calm     51 % 0 mm
20:56 -9.7 °C -15.2 °C 34462.7 hPa NNE 9 km/h 9 km/h 51 % 0 mm
21:01 -9.7 °C -15.2 °C 34462.7 hPa WNW 6 km/h 6 km/h 51 % 0 mm
21:06 -9.7 °C -15.3 °C 34462.7 hPa NNE 6.8 km/h 6.8 km/h 51 % 0 mm
21:11 -9.7 °C -15.3 °C 34462.7 hPa NNE 6 km/h 6 km/h 51 % 0 mm
21:16 -9.8 °C -15.2 °C 34462.7 hPa NNE 9 km/h 9 km/h 52 % 0 mm
21:21 -9.8 °C -15.2 °C 34462.7 hPa NNE 7.6 km/h 7.6 km/h 52 % 0 mm
21:26 -9.7 °C -15.1 °C 34462.7 hPa NNE 11.9 km/h 11.9 km/h 52 % 0 mm
21:31 -9.8 °C -15.2 °C 34462.7 hPa NNE 5.1 km/h 5.1 km/h 52 % 0 mm
21:36 -9.8 °C -15.2 °C 34462.7 hPa NNE 9 km/h 9 km/h 52 % 0 mm
21:41 -9.8 °C -15.2 °C 34462.7 hPa NNE 6 km/h 6 km/h 52 % 0 mm
21:46 -9.9 °C -15.2 °C 34462.7 hPa NNE 3.7 km/h 3.7 km/h 53 % 0 mm
21:51 -9.9 °C -15.2 °C 34462.7 hPa Calm     53 % 0 mm
21:56 -10 °C -15.2 °C 34462.7 hPa Calm     53 % 0 mm
22:01 -10.1 °C -15.3 °C 34462.7 hPa NW 3.1 km/h 3.1 km/h 53 % 0 mm
22:06 -10.1 °C -15.3 °C 34462.7 hPa NE 6 km/h 6 km/h 53 % 0 mm
22:11 -10.1 °C -15.3 °C 34462.7 hPa North 5.1 km/h 5.1 km/h 53 % 0 mm
22:16 -10.2 °C -15.2 °C 34462.7 hPa NNE 3.1 km/h   54 % 0 mm
22:21 -10.2 °C -15.3 °C 34462.7 hPa Calm     54 % 0 mm
22:26 -10.3 °C -15.3 °C 34462.7 hPa North 3.1 km/h   54 % 0 mm
22:31 -10.3 °C -15.4 °C 34462.7 hPa WNW 3.1 km/h   54 % 0 mm
22:36 -10.4 °C -15.4 °C 34462.7 hPa WNW 3.1 km/h   54 % 0 mm
22:41 -10.4 °C -15.3 °C 34462.7 hPa NNE 5.6 km/h   55 % 0 mm
22:46 -10.4 °C -15.4 °C 34462.7 hPa NNW 3.1 km/h 3.1 km/h 55 % 0 mm
22:51 -10.4 °C -15.3 °C 34462.7 hPa East 6.3 km/h 6.3 km/h 55 % 0 mm
22:56 -10.4 °C -15.3 °C 34462.7 hPa WSW 9 km/h 9 km/h 55 % 0 mm
23:01 -10.3 °C -15.2 °C 34462.7 hPa NNW 6.3 km/h 6.3 km/h 55 % 0 mm
23:06 -10.2 °C -15.2 °C 34462.7 hPa West 3.1 km/h 3.1 km/h 55 % 0 mm
23:11 -10.2 °C -15.2 °C 34462.7 hPa Calm     55 % 0 mm
23:16 -10.2 °C -15.2 °C 34462.7 hPa Calm     55 % 0 mm
23:21 -10.2 °C -15.2 °C 34462.7 hPa WSW 3.1 km/h   55 % 0 mm
23:26 -10.2 °C -15.2 °C 34428.8 hPa Calm     55 % 0 mm
23:31 -10.2 °C -15.2 °C 34428.8 hPa Calm     55 % 0 mm
23:36 -10.3 °C -15.2 °C 34428.8 hPa North 3.7 km/h 3.7 km/h 55 % 0 mm
23:41 -10.3 °C -15.2 °C 34428.8 hPa Calm     55 % 0 mm
23:46 -10.3 °C -15.2 °C 34428.8 hPa NNE 6 km/h 6 km/h 55 % 0 mm
23:51 -10.3 °C -15.2 °C 34428.8 hPa NNE 3.1 km/h   55 % 0 mm
23:56 -10.4 °C -15.2 °C 34428.8 hPa North 6 km/h 6 km/h 56 % 0 mm
Meteo Sesrovires
Elogis d' Weather Underground - 4 mb

Guio original per  Jim McMurry - jmcmurry@mwt.net Adaptat per a la plantilla per  Wim van der Kuil - Leuven-Template.eu

Trobareu la nostra informacio del temps tambe a:

Weather Underground

AWEKAS